Tokuyo Maru No.15 — JD2184 — position and weather

sailwx.info

Track history (hours):
 
Tides and Currents Weather Stations Pressure Air Temp Water Temp Dewpoint Dewpoint Depression Visibility Wind Speed Wind Dir Waves Ship Positions

Tokuyo Maru No.15

Last reported at 2014-Dec-18 10:28 UTC. Time now 2014-Dec-18 22:23 UTC.
Position N 35°17' E 139°45'.

Length 66 m; draft 4.5 m.

Type: Tanker. MMSI: 431402034.

Date/timePositionNaut miles runAvg speedWind from/ knotsBaromVisibWave heightAir tempDewpointWater temp
2014-Dec-18 10:28N 35°17' E 139°45'1011.1
2014-Dec-18 09:33N 35°27' E 139°47'10 9.0
2014-Dec-18 08:27N 35°35' E 139°54'0 0.0
2014-Dec-18 05:33N 35°35' E 139°54'0 0.0
2014-Dec-18 04:29N 35°35' E 139°54'0 0.0
2014-Dec-17 03:13N 35°35' E 139°54'0 0.0
2014-Dec-16 14:31N 35°35' E 139°54'0 0.0
2014-Dec-16 09:12N 35°35' E 139°54'4 0.3
2014-Dec-15 22:06N 35°31' E 139°54'712.3
2014-Dec-15 21:33N 35°26' E 139°48'10 0.3
2014-Dec-14 08:33N 35°16' E 139°46'1010.1
2014-Dec-14 07:33N 35°26' E 139°46'7 1.3
2014-Dec-14 02:17N 35°29' E 139°54'0 0.0
2014-Dec-14 00:26N 35°29' E 139°54'0 0.0
2014-Dec-13 23:20N 35°29' E 139°54'8 1.7
2014-Dec-13 18:15N 35°23' E 139°46'811.0
2014-Dec-13 17:33N 35°16' E 139°47'  
Track history (hours):
 
Tides and Currents Weather Stations Pressure Air Temp Water Temp Dewpoint Dewpoint Depression Visibility Wind Speed Wind Dir Waves Ship Positions

Tokuyo Maru No.15

Last reported at 2014-Dec-18 10:28 UTC. Time now 2014-Dec-18 22:23 UTC.
Position N 35°17' E 139°45'.

Length 66 m; draft 4.5 m.

Type: Tanker. MMSI: 431402034.

Date/timePositionNaut miles runAvg speedWind from/ knotsBaromVisibWave heightAir tempDewpointWater temp
2014-Dec-18 10:28N 35°17' E 139°45'1011.1
2014-Dec-18 09:33N 35°27' E 139°47'10 9.0
2014-Dec-18 08:27N 35°35' E 139°54'0 0.0
2014-Dec-18 05:33N 35°35' E 139°54'0 0.0
2014-Dec-18 04:29N 35°35' E 139°54'0 0.0
2014-Dec-17 03:13N 35°35' E 139°54'0 0.0
2014-Dec-16 14:31N 35°35' E 139°54'0 0.0
2014-Dec-16 09:12N 35°35' E 139°54'4 0.3
2014-Dec-15 22:06N 35°31' E 139°54'712.3
2014-Dec-15 21:33N 35°26' E 139°48'10 0.3
2014-Dec-14 08:33N 35°16' E 139°46'1010.1
2014-Dec-14 07:33N 35°26' E 139°46'7 1.3
2014-Dec-14 02:17N 35°29' E 139°54'0 0.0
2014-Dec-14 00:26N 35°29' E 139°54'0 0.0
2014-Dec-13 23:20N 35°29' E 139°54'8 1.7
2014-Dec-13 18:15N 35°23' E 139°46'811.0
2014-Dec-13 17:33N 35°16' E 139°47'  

Dump ship's entire track history